createdAt,value
2023-05-03T00:01:49.816Z,6.53
2023-05-03T00:04:55.165Z,7.07
2023-05-03T00:07:58.636Z,5.83
2023-05-03T00:11:01.589Z,6.77
2023-05-03T00:14:04.759Z,6.07
2023-05-03T00:17:07.667Z,6.17
2023-05-03T00:20:13.249Z,6.90
2023-05-03T00:23:16.044Z,7.13
2023-05-03T00:26:18.878Z,5.93
2023-05-03T00:29:22.866Z,6.13
2023-05-03T00:32:26.106Z,6.00
2023-05-03T00:35:30.455Z,6.13
2023-05-03T00:38:33.347Z,5.67
2023-05-03T00:41:36.320Z,6.23
2023-05-03T00:44:39.094Z,6.00
2023-05-03T00:47:42.428Z,5.77
2023-05-03T00:50:48.118Z,6.17
2023-05-03T00:53:51.475Z,5.80
2023-05-03T00:56:54.423Z,6.03
2023-05-03T00:59:58.925Z,6.13
2023-05-03T01:03:01.978Z,5.77
2023-05-03T01:06:12.716Z,6.30
2023-05-03T01:09:22.975Z,5.30
2023-05-03T01:12:40.521Z,5.60
2023-05-03T01:15:50.821Z,5.63
2023-05-03T01:18:57.946Z,5.70
2023-05-03T01:22:18.340Z,5.30
2023-05-03T01:25:22.458Z,5.50
2023-05-03T01:28:25.276Z,5.57
2023-05-03T01:31:33.700Z,5.33
2023-05-03T01:34:43.303Z,5.47
2023-05-03T01:37:46.239Z,5.57
2023-05-03T01:40:53.009Z,5.93
2023-05-03T01:43:57.012Z,5.53
2023-05-03T01:46:59.824Z,6.07
2023-05-03T01:50:02.878Z,5.07
2023-05-03T01:53:05.943Z,5.53
2023-05-03T01:56:10.209Z,5.90
2023-05-03T01:59:12.963Z,5.67
2023-05-03T02:02:15.756Z,5.63
2023-05-03T02:05:18.575Z,5.10
2023-05-03T02:08:21.334Z,5.37
2023-05-03T02:11:25.672Z,5.50
2023-05-03T02:14:28.644Z,5.33
2023-05-03T02:17:31.871Z,5.77
2023-05-03T02:20:37.660Z,5.50
2023-05-03T02:23:40.417Z,5.47
2023-05-03T02:26:44.555Z,7.17
2023-05-03T02:29:47.287Z,5.93
2023-05-03T02:32:50.097Z,7.13
2023-05-03T02:35:52.884Z,8.03
2023-05-03T02:38:55.957Z,7.53
2023-05-03T02:42:00.044Z,9.30
2023-05-03T02:45:03.292Z,9.90
2023-05-03T02:48:06.772Z,9.63
2023-05-03T02:51:09.570Z,10.03
2023-05-03T02:54:12.533Z,11.60
2023-05-03T02:57:16.845Z,11.37
2023-05-03T03:00:20.095Z,10.60
2023-05-03T03:03:22.982Z,9.80
2023-05-03T03:06:25.851Z,8.70
2023-05-03T03:09:28.617Z,8.10
2023-05-03T03:12:32.737Z,9.00
2023-05-03T03:15:35.486Z,8.73
2023-05-03T03:18:38.376Z,8.57
2023-05-03T03:21:41.707Z,7.50
2023-05-03T03:24:45.052Z,8.37
2023-05-03T03:27:49.439Z,8.70
2023-05-03T03:30:52.247Z,9.40
2023-05-03T03:33:55.036Z,8.97
2023-05-03T03:36:57.779Z,9.50
2023-05-03T03:40:00.685Z,12.57
2023-05-03T03:43:05.087Z,13.47
2023-05-03T03:46:07.839Z,10.27
2023-05-03T03:49:10.603Z,10.03
2023-05-03T03:52:13.441Z,10.83
2023-05-03T03:55:16.195Z,10.20
2023-05-03T03:58:20.359Z,11.17
2023-05-03T04:01:23.481Z,10.10
2023-05-03T04:04:26.512Z,10.03
2023-05-03T04:07:29.311Z,11.43
2023-05-03T04:10:32.045Z,11.40
2023-05-03T04:13:36.165Z,11.73
2023-05-03T04:16:38.939Z,11.77
2023-05-03T04:19:41.717Z,12.60
2023-05-03T04:22:44.629Z,12.63
2023-05-03T04:25:48.613Z,12.27
2023-05-03T04:28:52.935Z,12.57
2023-05-03T04:31:55.685Z,13.17
2023-05-03T04:34:58.795Z,11.67
2023-05-03T04:38:01.609Z,11.20
2023-05-03T04:41:04.351Z,10.57
2023-05-03T04:44:08.737Z,12.80
2023-05-03T04:47:11.809Z,11.53
2023-05-03T04:50:14.996Z,11.70
2023-05-03T04:53:17.779Z,12.80
2023-05-03T04:56:26.042Z,12.53
2023-05-03T04:59:30.134Z,13.20
2023-05-03T05:02:32.952Z,14.17
2023-05-03T05:05:35.756Z,14.70
2023-05-03T05:08:38.573Z,13.10
2023-05-03T05:11:41.307Z,14.33
2023-05-03T05:14:45.460Z,19.67
2023-05-03T05:17:48.437Z,15.83
2023-05-03T05:20:51.501Z,16.53
2023-05-03T05:23:54.267Z,16.07
2023-05-03T05:26:57.141Z,15.30
2023-05-03T05:30:01.592Z,15.07
2023-05-03T05:33:04.976Z,15.60
2023-05-03T05:36:08.392Z,15.37
2023-05-03T05:39:11.933Z,16.90
2023-05-03T05:42:14.747Z,15.47
2023-05-03T05:45:19.056Z,16.03
2023-05-03T05:48:21.842Z,15.30
2023-05-03T05:51:24.574Z,18.07
2023-05-03T05:54:28.647Z,16.67
2023-05-03T05:57:33.595Z,16.70
2023-05-03T06:00:37.727Z,16.27
2023-05-03T06:03:40.489Z,17.37
2023-05-03T06:06:43.558Z,18.37
2023-05-03T06:09:46.377Z,17.83
2023-05-03T06:12:49.393Z,17.73
2023-05-03T06:15:53.782Z,18.40
2023-05-03T06:18:56.645Z,14.93
2023-05-03T06:21:59.378Z,18.13
2023-05-03T06:25:02.262Z,17.40
2023-05-03T06:28:05.545Z,17.53
2023-05-03T06:31:09.745Z,16.90
2023-05-03T06:34:12.502Z,15.93
2023-05-03T06:37:15.435Z,14.47
2023-05-03T06:40:18.692Z,14.13
2023-05-03T06:43:22.254Z,13.70
2023-05-03T06:46:28.494Z,14.93
2023-05-03T06:49:31.663Z,15.20
2023-05-03T06:52:34.616Z,14.23
2023-05-03T06:55:37.520Z,16.07
2023-05-03T06:58:40.445Z,15.80
2023-05-03T07:01:44.628Z,16.23
2023-05-03T07:04:47.428Z,17.20
2023-05-03T07:07:50.339Z,17.43
2023-05-03T07:10:53.087Z,18.10
2023-05-03T07:13:56.058Z,18.40
2023-05-03T07:17:00.419Z,16.67
2023-05-03T07:20:04.200Z,17.33
2023-05-03T07:23:07.373Z,18.50
2023-05-03T07:26:10.159Z,18.67
2023-05-03T07:29:12.932Z,17.87
2023-05-03T07:32:17.149Z,18.10
2023-05-03T07:35:22.362Z,21.17
2023-05-03T07:38:25.124Z,19.57
2023-05-03T07:41:27.977Z,21.63
2023-05-03T07:44:30.773Z,21.60
2023-05-03T07:47:38.070Z,22.90
2023-05-03T07:50:43.664Z,21.80
2023-05-03T07:53:46.601Z,22.50
2023-05-03T07:56:49.331Z,23.33
2023-05-03T07:59:52.083Z,21.40
2023-05-03T08:02:56.337Z,21.93
2023-05-03T08:05:59.260Z,25.30
2023-05-03T08:09:02.171Z,23.53
2023-05-03T08:12:05.261Z,24.57
2023-05-03T08:15:09.230Z,24.03
2023-05-03T08:18:13.371Z,25.87
2023-05-03T08:21:17.491Z,27.47
2023-05-03T08:24:20.807Z,23.87
2023-05-03T08:27:24.694Z,25.43
2023-05-03T08:30:27.719Z,26.60
2023-05-03T08:33:31.865Z,26.70
2023-05-03T08:36:35.706Z,27.53
2023-05-03T08:39:38.487Z,30.17
2023-05-03T08:42:42.585Z,30.43
2023-05-03T08:45:45.477Z,29.20
2023-05-03T08:48:50.992Z,30.47
2023-05-03T08:51:55.736Z,29.33
2023-05-03T08:54:58.608Z,30.77
2023-05-03T08:58:01.774Z,28.33
2023-05-03T09:01:06.884Z,28.83
2023-05-03T09:04:12.630Z,32.23
2023-05-03T09:07:16.822Z,28.90
2023-05-03T09:10:24.466Z,29.90
2023-05-03T09:13:31.989Z,29.37
2023-05-03T09:16:41.427Z,30.70
2023-05-03T09:19:56.547Z,29.50
2023-05-03T09:23:00.462Z,30.07
2023-05-03T09:26:03.274Z,30.80
2023-05-03T09:29:06.246Z,31.30
2023-05-03T09:32:10.449Z,31.50
2023-05-03T09:35:15.161Z,29.70
2023-05-03T09:38:28.161Z,30.60
2023-05-03T09:41:32.249Z,28.07
2023-05-03T09:44:45.583Z,29.17
2023-05-03T09:47:52.604Z,30.70
2023-05-03T09:50:57.300Z,28.60
2023-05-03T09:54:00.570Z,30.53
2023-05-03T09:57:05.715Z,30.37
2023-05-03T10:00:10.936Z,29.03
2023-05-03T10:03:14.810Z,28.87
2023-05-03T10:06:24.288Z,27.67
2023-05-03T10:09:30.898Z,27.47
2023-05-03T10:12:35.985Z,30.27
2023-05-03T10:15:39.886Z,32.90
2023-05-03T10:18:45.953Z,29.10
2023-05-03T10:21:56.483Z,26.80
2023-05-03T10:25:09.680Z,27.63
2023-05-03T10:28:13.197Z,27.27
2023-05-03T10:31:35.184Z,29.77
2023-05-03T10:34:40.313Z,27.53
2023-05-03T10:37:45.548Z,27.80
2023-05-03T10:40:49.766Z,29.10
2023-05-03T10:43:52.964Z,29.97
2023-05-03T10:46:56.168Z,26.93
2023-05-03T10:50:18.231Z,27.53
2023-05-03T10:53:38.599Z,26.67
2023-05-03T10:56:52.124Z,27.73
2023-05-03T10:59:55.715Z,29.07
2023-05-03T11:03:17.689Z,26.10
2023-05-03T11:06:32.819Z,27.57
2023-05-03T11:09:38.549Z,25.60
2023-05-03T11:12:41.757Z,26.77
2023-05-03T11:15:47.640Z,27.30
2023-05-03T11:18:52.414Z,26.47
2023-05-03T11:21:55.616Z,27.40
2023-05-03T11:25:00.770Z,27.27
2023-05-03T11:28:04.877Z,26.50
2023-05-03T11:31:08.069Z,25.40
2023-05-03T11:34:11.478Z,25.80
2023-05-03T11:37:14.646Z,24.43
2023-05-03T11:40:19.501Z,22.73
2023-05-03T11:43:22.682Z,22.03
2023-05-03T11:46:26.888Z,25.00
2023-05-03T11:49:30.256Z,22.43
2023-05-03T11:52:33.450Z,20.70
2023-05-03T11:55:41.184Z,21.00
2023-05-03T11:58:56.890Z,19.47
2023-05-03T12:02:00.352Z,20.47
2023-05-03T12:05:04.248Z,18.00
2023-05-03T12:08:09.547Z,17.30
2023-05-03T12:11:15.256Z,17.47
2023-05-03T12:14:21.502Z,17.30
2023-05-03T12:17:38.634Z,17.80
2023-05-03T12:21:29.137Z,18.97
2023-05-03T12:24:06.528Z,16.70
2023-05-03T12:27:14.281Z,13.67
2023-05-03T12:30:18.269Z,15.30
2023-05-03T12:33:22.860Z,12.50
2023-05-03T12:36:31.237Z,14.50
2023-05-03T12:39:39.264Z,12.90
2023-05-03T12:42:44.954Z,10.90
2023-05-03T12:45:54.782Z,11.10
2023-05-03T12:49:14.515Z,9.10
2023-05-03T12:52:37.031Z,10.57
2023-05-03T12:55:43.710Z,9.07
2023-05-03T13:05:08.115Z,8.33
2023-05-03T13:08:21.162Z,7.83
2023-05-03T13:11:26.229Z,6.90
2023-05-03T13:14:30.935Z,7.17
2023-05-03T13:17:34.210Z,7.63
2023-05-03T13:20:38.998Z,9.53
2023-05-03T13:23:42.172Z,8.73
2023-05-03T13:26:45.335Z,9.10
2023-05-03T13:29:49.912Z,10.90
2023-05-03T13:32:53.348Z,7.57
2023-05-03T13:35:56.658Z,7.70
2023-05-03T13:38:59.835Z,8.90
2023-05-03T13:42:03.419Z,8.10
2023-05-03T13:45:08.671Z,8.88
2023-05-03T13:48:18.462Z,8.82
2023-05-03T13:51:23.813Z,8.68
2023-05-03T13:54:27.064Z,7.27
2023-05-03T13:57:30.306Z,7.53
2023-05-03T14:00:34.812Z,8.70
2023-05-03T14:03:37.992Z,7.20
2023-05-03T14:06:42.043Z,6.93
2023-05-03T14:09:45.485Z,6.85
2023-05-03T14:12:48.755Z,6.68
2023-05-03T14:15:53.444Z,4.88
2023-05-03T14:18:56.856Z,5.10
2023-05-03T14:22:00.959Z,5.00
2023-05-03T14:25:04.248Z,4.03
2023-05-03T14:28:07.487Z,4.15
2023-05-03T14:31:13.158Z,4.00
2023-05-03T14:34:16.562Z,3.80
2023-05-03T14:37:19.835Z,3.85
2023-05-03T14:40:23.037Z,7.05
2023-05-03T14:43:26.492Z,4.00
2023-05-03T14:46:31.113Z,3.50
2023-05-03T14:49:40.319Z,3.87
2023-05-03T14:52:43.486Z,3.22
2023-05-03T14:55:47.313Z,2.70
2023-05-03T14:58:50.507Z,2.38
2023-05-03T15:01:55.053Z,2.90
2023-05-03T15:04:58.235Z,2.30
2023-05-03T15:08:01.423Z,3.30
2023-05-03T15:11:05.171Z,3.10
2023-05-03T15:14:09.129Z,3.30
2023-05-03T15:17:13.942Z,4.55
2023-05-03T15:20:17.470Z,2.53
2023-05-03T15:23:20.661Z,3.35
2023-05-03T15:26:24.330Z,3.10
2023-05-03T15:29:27.891Z,3.70
2023-05-03T15:32:32.394Z,4.03
2023-05-03T15:35:35.567Z,3.55
2023-05-03T15:38:39.179Z,3.65
2023-05-03T15:41:42.336Z,3.47
2023-05-03T15:44:46.924Z,3.17
2023-05-03T15:47:51.477Z,4.17
2023-05-03T15:50:54.732Z,4.47
2023-05-03T15:53:58.524Z,3.58
2023-05-03T15:57:02.451Z,3.40
2023-05-03T16:00:13.295Z,3.73
2023-05-03T16:03:17.814Z,3.33
2023-05-03T16:06:21.030Z,4.40
2023-05-03T16:09:24.189Z,4.28
2023-05-03T16:12:27.783Z,3.93
2023-05-03T16:15:31.113Z,3.90
2023-05-03T16:18:35.671Z,4.13
2023-05-03T16:21:38.931Z,4.03
2023-05-03T16:24:42.171Z,5.10
2023-05-03T16:27:45.443Z,4.70
2023-05-03T16:30:48.619Z,3.80
2023-05-03T16:33:53.156Z,4.30
2023-05-03T16:36:56.342Z,3.83
2023-05-03T16:39:59.577Z,4.30
2023-05-03T16:43:02.838Z,3.93
2023-05-03T16:46:06.156Z,4.77
2023-05-03T16:49:10.760Z,4.27
2023-05-03T16:52:14.234Z,4.57
2023-05-03T16:55:22.830Z,4.40
2023-05-03T16:58:26.222Z,4.20
2023-05-03T17:01:29.437Z,4.27
2023-05-03T17:04:33.984Z,3.83
2023-05-03T17:07:37.440Z,3.80
2023-05-03T17:10:41.565Z,4.27
2023-05-03T17:13:45.084Z,3.73
2023-05-03T17:16:49.082Z,3.63
2023-05-03T17:19:53.699Z,3.95
2023-05-03T17:22:56.844Z,3.53
2023-05-03T17:26:00.104Z,4.00
2023-05-03T17:29:03.268Z,3.67
2023-05-03T17:32:06.525Z,4.50
2023-05-03T17:35:12.426Z,4.10
2023-05-03T17:38:15.587Z,3.73
2023-05-03T17:41:18.773Z,4.90
2023-05-03T17:44:22.818Z,5.23
2023-05-03T17:47:26.154Z,4.63
2023-05-03T17:50:30.722Z,4.20
2023-05-03T17:53:33.940Z,3.80
2023-05-03T17:56:37.104Z,3.77
2023-05-03T17:59:40.701Z,3.73
2023-05-03T18:02:44.715Z,4.07
2023-05-03T18:05:49.433Z,3.73
2023-05-03T18:08:53.037Z,4.33
2023-05-03T18:11:59.545Z,3.73
2023-05-03T18:15:03.754Z,3.90
2023-05-03T18:18:07.181Z,3.70
2023-05-03T18:21:12.396Z,4.23
2023-05-03T18:24:16.285Z,4.83
2023-05-03T18:27:21.810Z,3.80
2023-05-03T18:30:25.920Z,4.93
2023-05-03T18:33:29.086Z,5.67
2023-05-03T18:36:33.736Z,5.33
2023-05-03T18:39:36.908Z,4.53
2023-05-03T18:42:40.074Z,5.00
2023-05-03T18:45:43.305Z,5.30
2023-05-03T18:48:46.674Z,5.27
2023-05-03T18:51:51.250Z,4.77
2023-05-03T18:54:54.479Z,5.07
2023-05-03T18:57:58.699Z,5.50
2023-05-03T19:01:01.909Z,5.27
2023-05-03T19:04:05.197Z,6.00
2023-05-03T19:07:10.387Z,5.27
2023-05-03T19:10:13.958Z,5.97
2023-05-03T19:13:17.560Z,6.10
2023-05-03T19:16:20.916Z,6.30
2023-05-03T19:19:24.124Z,5.83
2023-05-03T19:22:28.685Z,6.07
2023-05-03T19:25:31.936Z,6.43
2023-05-03T19:28:35.142Z,7.13
2023-05-03T19:31:38.545Z,6.90
2023-05-03T19:34:42.142Z,7.07
2023-05-03T19:37:46.649Z,9.50
2023-05-03T19:40:57.259Z,8.50
2023-05-03T19:44:00.477Z,8.83
2023-05-03T19:47:03.771Z,9.77
2023-05-03T19:50:07.627Z,8.83
2023-05-03T19:53:12.680Z,8.57
2023-05-03T19:56:15.952Z,8.50
2023-05-03T19:59:19.131Z,9.20
2023-05-03T20:02:24.702Z,8.53
2023-05-03T20:05:28.225Z,9.17
2023-05-03T20:08:32.836Z,8.87
2023-05-03T20:11:36.003Z,10.23
2023-05-03T20:14:39.238Z,8.73
2023-05-03T20:17:42.471Z,10.37
2023-05-03T20:20:45.800Z,10.33
2023-05-03T20:23:50.342Z,10.80
2023-05-03T20:26:53.861Z,9.53
2023-05-03T20:29:57.709Z,9.80
2023-05-03T20:33:00.972Z,11.03
2023-05-03T20:36:04.303Z,10.57
2023-05-03T20:39:09.606Z,10.07
2023-05-03T20:42:12.791Z,10.30
2023-05-03T20:45:16.052Z,10.00
2023-05-03T20:48:19.236Z,11.23
2023-05-03T20:51:22.466Z,11.20
2023-05-03T20:54:27.822Z,11.47
2023-05-03T20:57:31.115Z,11.97
2023-05-03T21:00:34.335Z,11.47
2023-05-03T21:03:37.550Z,12.53
2023-05-03T21:06:43.681Z,11.30
2023-05-03T21:09:49.693Z,11.60
2023-05-03T21:12:52.928Z,12.30
2023-05-03T21:15:56.624Z,11.27
2023-05-03T21:18:59.775Z,11.33
2023-05-03T21:22:02.975Z,10.60
2023-05-03T21:25:08.311Z,11.37
2023-05-03T21:28:11.782Z,11.87
2023-05-03T21:31:15.339Z,12.50
2023-05-03T21:34:18.533Z,11.13
2023-05-03T21:37:21.848Z,11.10
2023-05-03T21:40:26.368Z,11.17
2023-05-03T21:43:29.527Z,11.53
2023-05-03T21:46:33.100Z,10.60
2023-05-03T21:49:36.360Z,10.87
2023-05-03T21:52:40.259Z,11.07
2023-05-03T21:55:44.797Z,11.53
2023-05-03T21:58:48.404Z,10.73
2023-05-03T22:01:51.805Z,10.60
2023-05-03T22:04:55.012Z,11.17
2023-05-03T22:07:58.188Z,11.87
2023-05-03T22:11:05.686Z,11.20
2023-05-03T22:14:09.304Z,11.87
2023-05-03T22:17:12.501Z,12.47
2023-05-03T22:20:15.800Z,11.03
2023-05-03T22:23:19.029Z,11.13
2023-05-03T22:26:24.226Z,10.83
2023-05-03T22:29:27.524Z,12.33
2023-05-03T22:32:30.809Z,11.57
2023-05-03T22:35:33.991Z,11.83
2023-05-03T22:38:37.152Z,12.10
2023-05-03T22:41:41.791Z,13.43
2023-05-03T22:44:44.944Z,13.30
2023-05-03T22:47:48.123Z,13.27
2023-05-03T22:50:51.619Z,13.47
2023-05-03T22:53:54.807Z,12.70
2023-05-03T22:56:59.517Z,12.73
2023-05-03T23:00:03.314Z,12.37
2023-05-03T23:03:08.204Z,13.67
2023-05-03T23:06:11.468Z,12.37
2023-05-03T23:09:14.784Z,14.13
2023-05-03T23:12:19.719Z,13.27
2023-05-03T23:15:23.313Z,12.33
2023-05-03T23:18:26.978Z,13.67
2023-05-03T23:21:30.214Z,13.73
2023-05-03T23:24:34.653Z,13.57
2023-05-03T23:27:39.221Z,14.33
2023-05-03T23:30:44.151Z,13.53
2023-05-03T23:33:47.774Z,14.00
2023-05-03T23:36:50.986Z,12.40
2023-05-03T23:39:54.509Z,12.83
2023-05-03T23:42:59.067Z,13.83
2023-05-03T23:46:02.287Z,14.47
2023-05-03T23:49:05.671Z,14.53
2023-05-03T23:52:09.764Z,13.77
2023-05-03T23:55:13.170Z,12.90
2023-05-03T23:58:17.671Z,13.77
